sensor_id;sensor_type;location;lat;lon;timestamp;temperature;humidity
13686;DHT22;6915;48.296;8.874;2022-11-10T00:00:54;9.70;99.90
13686;DHT22;6915;48.296;8.874;2022-11-10T00:03:23;9.70;99.90
13686;DHT22;6915;48.296;8.874;2022-11-10T00:05:53;9.70;99.90
13686;DHT22;6915;48.296;8.874;2022-11-10T00:08:20;9.70;99.90
13686;DHT22;6915;48.296;8.874;2022-11-10T00:10:47;9.70;99.90
13686;DHT22;6915;48.296;8.874;2022-11-10T00:13:28;9.70;99.90
13686;DHT22;6915;48.296;8.874;2022-11-10T00:16:00;9.80;99.90
13686;DHT22;6915;48.296;8.874;2022-11-10T00:18:46;9.70;99.90
13686;DHT22;6915;48.296;8.874;2022-11-10T00:21:14;9.70;99.90
13686;DHT22;6915;48.296;8.874;2022-11-10T00:23:41;9.80;99.90
13686;DHT22;6915;48.296;8.874;2022-11-10T00:26:13;9.70;99.90
13686;DHT22;6915;48.296;8.874;2022-11-10T00:28:41;9.60;99.90
13686;DHT22;6915;48.296;8.874;2022-11-10T00:31:09;9.70;99.90
13686;DHT22;6915;48.296;8.874;2022-11-10T00:33:37;9.60;99.90
13686;DHT22;6915;48.296;8.874;2022-11-10T00:36:06;9.60;99.90
13686;DHT22;6915;48.296;8.874;2022-11-10T00:38:33;9.60;99.90
13686;DHT22;6915;48.296;8.874;2022-11-10T00:41:00;9.60;99.90
13686;DHT22;6915;48.296;8.874;2022-11-10T00:43:28;9.60;99.90
13686;DHT22;6915;48.296;8.874;2022-11-10T00:45:55;9.50;99.90
13686;DHT22;6915;48.296;8.874;2022-11-10T00:48:22;9.70;99.90
13686;DHT22;6915;48.296;8.874;2022-11-10T00:50:49;9.50;99.90
13686;DHT22;6915;48.296;8.874;2022-11-10T00:53:17;9.40;99.90
13686;DHT22;6915;48.296;8.874;2022-11-10T00:55:44;9.40;99.90
13686;DHT22;6915;48.296;8.874;2022-11-10T00:58:11;9.30;99.90
13686;DHT22;6915;48.296;8.874;2022-11-10T01:00:38;9.20;99.90
13686;DHT22;6915;48.296;8.874;2022-11-10T01:03:05;9.30;99.90
13686;DHT22;6915;48.296;8.874;2022-11-10T01:05:35;9.20;99.90
13686;DHT22;6915;48.296;8.874;2022-11-10T01:08:02;9.10;99.90
13686;DHT22;6915;48.296;8.874;2022-11-10T01:10:30;9.10;99.90
13686;DHT22;6915;48.296;8.874;2022-11-10T01:12:58;9.00;99.90
13686;DHT22;6915;48.296;8.874;2022-11-10T01:15:25;9.10;99.90
13686;DHT22;6915;48.296;8.874;2022-11-10T01:17:54;9.10;99.90
13686;DHT22;6915;48.296;8.874;2022-11-10T01:20:21;9.00;99.90
13686;DHT22;6915;48.296;8.874;2022-11-10T01:22:48;9.00;99.90
13686;DHT22;6915;48.296;8.874;2022-11-10T01:25:15;9.00;99.90
13686;DHT22;6915;48.296;8.874;2022-11-10T01:27:44;8.90;99.90
13686;DHT22;6915;48.296;8.874;2022-11-10T01:30:11;8.90;99.90
13686;DHT22;6915;48.296;8.874;2022-11-10T01:32:38;8.80;99.90
13686;DHT22;6915;48.296;8.874;2022-11-10T01:35:06;8.60;99.90
13686;DHT22;6915;48.296;8.874;2022-11-10T01:37:33;8.70;99.90
13686;DHT22;6915;48.296;8.874;2022-11-10T01:40:00;8.70;99.90
13686;DHT22;6915;48.296;8.874;2022-11-10T01:42:41;8.60;99.90
13686;DHT22;6915;48.296;8.874;2022-11-10T01:45:38;8.60;99.90
13686;DHT22;6915;48.296;8.874;2022-11-10T01:48:09;8.50;99.90
13686;DHT22;6915;48.296;8.874;2022-11-10T01:50:38;8.50;99.90
13686;DHT22;6915;48.296;8.874;2022-11-10T01:53:10;8.40;99.90
13686;DHT22;6915;48.296;8.874;2022-11-10T01:55:42;8.20;99.90
13686;DHT22;6915;48.296;8.874;2022-11-10T01:58:13;8.10;99.90
13686;DHT22;6915;48.296;8.874;2022-11-10T02:00:43;8.10;99.90
13686;DHT22;6915;48.296;8.874;2022-11-10T02:03:13;8.00;99.90
13686;DHT22;6915;48.296;8.874;2022-11-10T02:05:42;7.90;99.90
13686;DHT22;6915;48.296;8.874;2022-11-10T02:08:12;7.70;99.90
13686;DHT22;6915;48.296;8.874;2022-11-10T02:10:40;7.70;99.90
13686;DHT22;6915;48.296;8.874;2022-11-10T02:13:07;7.60;99.90
13686;DHT22;6915;48.296;8.874;2022-11-10T02:15:34;7.70;99.90
13686;DHT22;6915;48.296;8.874;2022-11-10T02:18:03;7.50;99.90
13686;DHT22;6915;48.296;8.874;2022-11-10T02:20:30;7.40;99.90
13686;DHT22;6915;48.296;8.874;2022-11-10T02:22:58;7.40;99.90
13686;DHT22;6915;48.296;8.874;2022-11-10T02:25:29;7.30;99.90
13686;DHT22;6915;48.296;8.874;2022-11-10T02:27:58;7.20;99.90
13686;DHT22;6915;48.296;8.874;2022-11-10T02:30:25;7.20;99.90
13686;DHT22;6915;48.296;8.874;2022-11-10T02:32:52;7.20;99.90
13686;DHT22;6915;48.296;8.874;2022-11-10T02:35:19;7.30;99.90
13686;DHT22;6915;48.296;8.874;2022-11-10T02:37:46;7.00;99.90
13686;DHT22;6915;48.296;8.874;2022-11-10T02:40:14;6.90;99.90
13686;DHT22;6915;48.296;8.874;2022-11-10T02:42:41;6.90;99.90
13686;DHT22;6915;48.296;8.874;2022-11-10T02:45:08;6.80;99.90
13686;DHT22;6915;48.296;8.874;2022-11-10T02:47:35;6.80;99.90
13686;DHT22;6915;48.296;8.874;2022-11-10T02:50:03;6.80;99.90
13686;DHT22;6915;48.296;8.874;2022-11-10T02:52:30;6.90;99.90
13686;DHT22;6915;48.296;8.874;2022-11-10T02:54:57;6.90;99.90
13686;DHT22;6915;48.296;8.874;2022-11-10T02:57:25;6.90;99.90
13686;DHT22;6915;48.296;8.874;2022-11-10T02:59:52;7.00;99.90
13686;DHT22;6915;48.296;8.874;2022-11-10T03:02:19;7.00;99.90
13686;DHT22;6915;48.296;8.874;2022-11-10T03:04:45;7.00;99.90
13686;DHT22;6915;48.296;8.874;2022-11-10T03:07:12;7.10;99.90
13686;DHT22;6915;48.296;8.874;2022-11-10T03:09:39;7.20;99.90
13686;DHT22;6915;48.296;8.874;2022-11-10T03:12:06;7.20;99.90
13686;DHT22;6915;48.296;8.874;2022-11-10T03:14:35;7.20;99.90
13686;DHT22;6915;48.296;8.874;2022-11-10T03:17:02;7.20;99.90
13686;DHT22;6915;48.296;8.874;2022-11-10T03:19:28;7.30;99.90
13686;DHT22;6915;48.296;8.874;2022-11-10T03:21:55;7.40;99.90
13686;DHT22;6915;48.296;8.874;2022-11-10T03:24:22;7.50;99.90
13686;DHT22;6915;48.296;8.874;2022-11-10T03:26:49;7.30;99.90
13686;DHT22;6915;48.296;8.874;2022-11-10T03:29:16;7.30;99.90
13686;DHT22;6915;48.296;8.874;2022-11-10T03:31:44;7.30;99.90
13686;DHT22;6915;48.296;8.874;2022-11-10T03:34:11;7.30;99.90
13686;DHT22;6915;48.296;8.874;2022-11-10T03:36:38;7.30;99.90
13686;DHT22;6915;48.296;8.874;2022-11-10T03:39:05;7.30;99.90
13686;DHT22;6915;48.296;8.874;2022-11-10T03:41:32;7.30;99.90
13686;DHT22;6915;48.296;8.874;2022-11-10T03:43:59;7.20;99.90
13686;DHT22;6915;48.296;8.874;2022-11-10T03:46:26;7.20;99.90
13686;DHT22;6915;48.296;8.874;2022-11-10T03:48:54;7.30;99.90
13686;DHT22;6915;48.296;8.874;2022-11-10T03:51:21;7.30;99.90
13686;DHT22;6915;48.296;8.874;2022-11-10T03:53:48;7.20;99.90
13686;DHT22;6915;48.296;8.874;2022-11-10T03:56:15;7.20;99.90
13686;DHT22;6915;48.296;8.874;2022-11-10T03:58:42;7.10;99.90
13686;DHT22;6915;48.296;8.874;2022-11-10T04:01:09;7.10;99.90
13686;DHT22;6915;48.296;8.874;2022-11-10T04:03:36;7.20;99.90
13686;DHT22;6915;48.296;8.874;2022-11-10T04:06:05;7.00;99.90
13686;DHT22;6915;48.296;8.874;2022-11-10T04:08:48;7.00;99.90
13686;DHT22;6915;48.296;8.874;2022-11-10T04:11:28;6.90;99.90
13686;DHT22;6915;48.296;8.874;2022-11-10T04:14:13;6.90;99.90
13686;DHT22;6915;48.296;8.874;2022-11-10T04:16:58;6.90;99.90
13686;DHT22;6915;48.296;8.874;2022-11-10T04:19:25;6.70;99.90
13686;DHT22;6915;48.296;8.874;2022-11-10T04:21:54;6.80;99.90
13686;DHT22;6915;48.296;8.874;2022-11-10T04:24:21;6.70;99.90
13686;DHT22;6915;48.296;8.874;2022-11-10T04:26:48;6.70;99.90
13686;DHT22;6915;48.296;8.874;2022-11-10T04:29:17;6.70;99.90
13686;DHT22;6915;48.296;8.874;2022-11-10T04:31:44;6.70;99.90
13686;DHT22;6915;48.296;8.874;2022-11-10T04:34:13;6.50;99.90
13686;DHT22;6915;48.296;8.874;2022-11-10T04:36:42;6.50;99.90
13686;DHT22;6915;48.296;8.874;2022-11-10T04:39:11;6.50;99.90
13686;DHT22;6915;48.296;8.874;2022-11-10T04:41:38;6.50;99.90
13686;DHT22;6915;48.296;8.874;2022-11-10T04:44:05;6.50;99.90
13686;DHT22;6915;48.296;8.874;2022-11-10T04:46:33;6.40;99.90
13686;DHT22;6915;48.296;8.874;2022-11-10T04:49:01;6.40;99.90
13686;DHT22;6915;48.296;8.874;2022-11-10T04:51:30;6.40;99.90
13686;DHT22;6915;48.296;8.874;2022-11-10T04:53:57;6.40;99.90
13686;DHT22;6915;48.296;8.874;2022-11-10T04:56:26;6.50;99.90
13686;DHT22;6915;48.296;8.874;2022-11-10T04:58:54;6.40;99.90
13686;DHT22;6915;48.296;8.874;2022-11-10T05:01:25;6.40;99.90
13686;DHT22;6915;48.296;8.874;2022-11-10T05:03:53;6.50;99.90
13686;DHT22;6915;48.296;8.874;2022-11-10T05:06:20;6.50;99.90
13686;DHT22;6915;48.296;8.874;2022-11-10T05:08:48;6.80;99.90
13686;DHT22;6915;48.296;8.874;2022-11-10T05:11:15;6.60;99.90
13686;DHT22;6915;48.296;8.874;2022-11-10T05:13:44;6.70;99.90
13686;DHT22;6915;48.296;8.874;2022-11-10T05:16:12;6.70;99.90
13686;DHT22;6915;48.296;8.874;2022-11-10T05:18:39;6.90;99.90
13686;DHT22;6915;48.296;8.874;2022-11-10T05:21:05;6.70;99.90
13686;DHT22;6915;48.296;8.874;2022-11-10T05:23:32;6.60;99.90
13686;DHT22;6915;48.296;8.874;2022-11-10T05:26:08;6.60;99.90
13686;DHT22;6915;48.296;8.874;2022-11-10T05:28:35;6.60;99.90
13686;DHT22;6915;48.296;8.874;2022-11-10T05:31:03;6.60;99.90
13686;DHT22;6915;48.296;8.874;2022-11-10T05:33:32;6.50;99.90
13686;DHT22;6915;48.296;8.874;2022-11-10T05:35:59;6.50;99.90
13686;DHT22;6915;48.296;8.874;2022-11-10T05:38:26;6.50;99.90
13686;DHT22;6915;48.296;8.874;2022-11-10T05:40:53;6.50;99.90
13686;DHT22;6915;48.296;8.874;2022-11-10T05:43:22;6.40;99.90
13686;DHT22;6915;48.296;8.874;2022-11-10T05:45:49;6.50;99.90
13686;DHT22;6915;48.296;8.874;2022-11-10T05:48:17;6.20;99.90
13686;DHT22;6915;48.296;8.874;2022-11-10T05:50:44;6.30;99.90
13686;DHT22;6915;48.296;8.874;2022-11-10T05:53:12;6.30;99.90
13686;DHT22;6915;48.296;8.874;2022-11-10T05:55:39;6.10;99.90
13686;DHT22;6915;48.296;8.874;2022-11-10T05:58:06;6.10;99.90
13686;DHT22;6915;48.296;8.874;2022-11-10T06:00:33;6.10;99.90
13686;DHT22;6915;48.296;8.874;2022-11-10T06:03:02;5.80;99.90
13686;DHT22;6915;48.296;8.874;2022-11-10T06:05:32;5.70;99.90
13686;DHT22;6915;48.296;8.874;2022-11-10T06:08:00;5.60;99.90
13686;DHT22;6915;48.296;8.874;2022-11-10T06:10:28;5.70;99.90
13686;DHT22;6915;48.296;8.874;2022-11-10T06:12:55;5.70;99.90
13686;DHT22;6915;48.296;8.874;2022-11-10T06:15:22;5.50;99.90
13686;DHT22;6915;48.296;8.874;2022-11-10T06:17:50;5.40;99.90
13686;DHT22;6915;48.296;8.874;2022-11-10T06:20:17;5.30;99.90
13686;DHT22;6915;48.296;8.874;2022-11-10T06:22:56;5.30;99.90
13686;DHT22;6915;48.296;8.874;2022-11-10T06:25:27;5.20;99.90
13686;DHT22;6915;48.296;8.874;2022-11-10T06:27:55;5.20;99.90
13686;DHT22;6915;48.296;8.874;2022-11-10T06:30:22;5.20;99.90
13686;DHT22;6915;48.296;8.874;2022-11-10T06:32:49;5.20;99.90
13686;DHT22;6915;48.296;8.874;2022-11-10T06:35:17;5.10;99.90
13686;DHT22;6915;48.296;8.874;2022-11-10T06:37:46;5.10;99.90
13686;DHT22;6915;48.296;8.874;2022-11-10T06:40:21;5.10;99.90
13686;DHT22;6915;48.296;8.874;2022-11-10T06:42:49;5.00;99.90
13686;DHT22;6915;48.296;8.874;2022-11-10T06:45:16;5.00;99.90
13686;DHT22;6915;48.296;8.874;2022-11-10T06:47:43;5.10;99.90
13686;DHT22;6915;48.296;8.874;2022-11-10T06:50:10;5.00;99.90
13686;DHT22;6915;48.296;8.874;2022-11-10T06:52:37;4.90;99.90
13686;DHT22;6915;48.296;8.874;2022-11-10T06:55:06;5.00;99.90
13686;DHT22;6915;48.296;8.874;2022-11-10T06:57:36;5.00;99.90
13686;DHT22;6915;48.296;8.874;2022-11-10T07:00:04;5.10;99.90
13686;DHT22;6915;48.296;8.874;2022-11-10T07:02:32;5.20;99.90
13686;DHT22;6915;48.296;8.874;2022-11-10T07:04:59;5.20;99.90
13686;DHT22;6915;48.296;8.874;2022-11-10T07:07:26;5.20;99.90
13686;DHT22;6915;48.296;8.874;2022-11-10T07:09:53;5.10;99.90
13686;DHT22;6915;48.296;8.874;2022-11-10T07:12:21;5.20;99.90
13686;DHT22;6915;48.296;8.874;2022-11-10T07:14:48;5.20;99.90
13686;DHT22;6915;48.296;8.874;2022-11-10T07:17:15;5.30;99.90
13686;DHT22;6915;48.296;8.874;2022-11-10T07:19:42;5.40;99.90
13686;DHT22;6915;48.296;8.874;2022-11-10T07:22:09;5.30;99.90
13686;DHT22;6915;48.296;8.874;2022-11-10T07:24:36;5.30;99.90
13686;DHT22;6915;48.296;8.874;2022-11-10T07:27:03;5.50;99.90
13686;DHT22;6915;48.296;8.874;2022-11-10T07:29:33;5.40;99.90
13686;DHT22;6915;48.296;8.874;2022-11-10T07:32:00;5.50;99.90
13686;DHT22;6915;48.296;8.874;2022-11-10T07:34:28;5.50;99.90
13686;DHT22;6915;48.296;8.874;2022-11-10T07:36:55;5.60;99.90
13686;DHT22;6915;48.296;8.874;2022-11-10T07:39:24;5.60;99.90
13686;DHT22;6915;48.296;8.874;2022-11-10T07:41:54;5.70;99.90
13686;DHT22;6915;48.296;8.874;2022-11-10T07:44:22;5.70;99.90
13686;DHT22;6915;48.296;8.874;2022-11-10T07:46:52;5.80;99.90
13686;DHT22;6915;48.296;8.874;2022-11-10T07:49:20;6.00;99.90
13686;DHT22;6915;48.296;8.874;2022-11-10T07:51:47;6.10;99.90
13686;DHT22;6915;48.296;8.874;2022-11-10T07:54:14;6.20;99.90
13686;DHT22;6915;48.296;8.874;2022-11-10T07:56:42;6.40;99.90
13686;DHT22;6915;48.296;8.874;2022-11-10T07:59:10;6.50;99.90
13686;DHT22;6915;48.296;8.874;2022-11-10T08:01:37;6.60;99.90
13686;DHT22;6915;48.296;8.874;2022-11-10T08:04:06;6.60;99.90
13686;DHT22;6915;48.296;8.874;2022-11-10T08:06:34;6.80;99.90
13686;DHT22;6915;48.296;8.874;2022-11-10T08:09:01;6.90;99.90
13686;DHT22;6915;48.296;8.874;2022-11-10T08:11:29;6.90;99.90
13686;DHT22;6915;48.296;8.874;2022-11-10T08:13:57;7.00;99.90
13686;DHT22;6915;48.296;8.874;2022-11-10T08:16:24;7.10;99.90
13686;DHT22;6915;48.296;8.874;2022-11-10T08:18:51;7.10;99.90
13686;DHT22;6915;48.296;8.874;2022-11-10T08:21:20;7.20;99.90
13686;DHT22;6915;48.296;8.874;2022-11-10T08:23:47;7.20;99.90
13686;DHT22;6915;48.296;8.874;2022-11-10T08:26:14;7.40;99.90
13686;DHT22;6915;48.296;8.874;2022-11-10T08:28:42;7.30;99.90
13686;DHT22;6915;48.296;8.874;2022-11-10T08:31:10;7.40;99.90
13686;DHT22;6915;48.296;8.874;2022-11-10T08:33:37;7.50;99.90
13686;DHT22;6915;48.296;8.874;2022-11-10T08:36:05;7.70;99.90
13686;DHT22;6915;48.296;8.874;2022-11-10T08:38:34;7.80;99.90
13686;DHT22;6915;48.296;8.874;2022-11-10T08:41:01;7.80;99.90
13686;DHT22;6915;48.296;8.874;2022-11-10T08:43:29;7.90;99.90
13686;DHT22;6915;48.296;8.874;2022-11-10T08:45:56;8.00;99.90
13686;DHT22;6915;48.296;8.874;2022-11-10T08:48:23;8.20;99.90
13686;DHT22;6915;48.296;8.874;2022-11-10T08:50:51;8.20;99.90
13686;DHT22;6915;48.296;8.874;2022-11-10T08:53:19;8.30;99.90
13686;DHT22;6915;48.296;8.874;2022-11-10T08:55:48;8.50;99.90
13686;DHT22;6915;48.296;8.874;2022-11-10T08:58:17;8.60;99.90
13686;DHT22;6915;48.296;8.874;2022-11-10T09:00:46;8.70;99.90
13686;DHT22;6915;48.296;8.874;2022-11-10T09:03:15;8.80;99.90
13686;DHT22;6915;48.296;8.874;2022-11-10T09:05:44;9.00;99.90
13686;DHT22;6915;48.296;8.874;2022-11-10T09:08:11;9.00;99.90
13686;DHT22;6915;48.296;8.874;2022-11-10T09:10:40;9.10;99.90
13686;DHT22;6915;48.296;8.874;2022-11-10T09:13:10;9.10;99.90
13686;DHT22;6915;48.296;8.874;2022-11-10T09:15:38;9.20;99.90
13686;DHT22;6915;48.296;8.874;2022-11-10T09:18:06;9.20;99.90
13686;DHT22;6915;48.296;8.874;2022-11-10T09:20:35;9.30;99.90
13686;DHT22;6915;48.296;8.874;2022-11-10T09:23:04;9.40;99.90
13686;DHT22;6915;48.296;8.874;2022-11-10T09:25:31;9.40;99.90
13686;DHT22;6915;48.296;8.874;2022-11-10T09:27:58;9.50;99.90
13686;DHT22;6915;48.296;8.874;2022-11-10T09:30:27;9.60;99.90
13686;DHT22;6915;48.296;8.874;2022-11-10T09:32:55;9.60;99.90
13686;DHT22;6915;48.296;8.874;2022-11-10T09:35:23;9.70;99.90
13686;DHT22;6915;48.296;8.874;2022-11-10T09:37:51;9.80;99.90
13686;DHT22;6915;48.296;8.874;2022-11-10T09:40:22;9.80;99.90
13686;DHT22;6915;48.296;8.874;2022-11-10T09:42:53;9.90;99.90
13686;DHT22;6915;48.296;8.874;2022-11-10T09:45:24;10.00;99.90
13686;DHT22;6915;48.296;8.874;2022-11-10T09:47:59;10.10;99.90
13686;DHT22;6915;48.296;8.874;2022-11-10T09:50:32;10.20;99.90
13686;DHT22;6915;48.296;8.874;2022-11-10T09:53:01;10.20;99.90
13686;DHT22;6915;48.296;8.874;2022-11-10T09:55:35;10.20;99.90
13686;DHT22;6915;48.296;8.874;2022-11-10T10:11:51;10.80;99.90
13686;DHT22;6915;48.296;8.874;2022-11-10T10:14:37;11.00;99.90
13686;DHT22;6915;48.296;8.874;2022-11-10T10:17:17;11.00;99.90
13686;DHT22;6915;48.296;8.874;2022-11-10T10:19:51;11.30;99.90
13686;DHT22;6915;48.296;8.874;2022-11-10T10:25:21;11.50;99.90
13686;DHT22;6915;48.296;8.874;2022-11-10T10:28:04;11.50;99.90
13686;DHT22;6915;48.296;8.874;2022-11-10T10:30:32;11.60;99.90
13686;DHT22;6915;48.296;8.874;2022-11-10T10:33:10;11.60;99.90
13686;DHT22;6915;48.296;8.874;2022-11-10T10:35:40;11.60;99.90
13686;DHT22;6915;48.296;8.874;2022-11-10T10:38:16;11.60;99.90
13686;DHT22;6915;48.296;8.874;2022-11-10T10:40:45;11.70;99.90
13686;DHT22;6915;48.296;8.874;2022-11-10T10:43:16;11.70;99.90
13686;DHT22;6915;48.296;8.874;2022-11-10T10:45:43;11.60;99.90
13686;DHT22;6915;48.296;8.874;2022-11-10T10:48:29;11.50;99.90
13686;DHT22;6915;48.296;8.874;2022-11-10T10:50:58;11.50;99.90
13686;DHT22;6915;48.296;8.874;2022-11-10T10:53:25;11.40;99.90
13686;DHT22;6915;48.296;8.874;2022-11-10T10:55:56;11.20;99.90
13686;DHT22;6915;48.296;8.874;2022-11-10T10:58:47;11.00;99.90
13686;DHT22;6915;48.296;8.874;2022-11-10T11:01:20;10.90;99.90
13686;DHT22;6915;48.296;8.874;2022-11-10T11:03:51;10.70;99.90
13686;DHT22;6915;48.296;8.874;2022-11-10T11:06:20;10.80;99.90
13686;DHT22;6915;48.296;8.874;2022-11-10T11:09:06;10.90;99.90
13686;DHT22;6915;48.296;8.874;2022-11-10T11:11:35;11.10;99.90
13686;DHT22;6915;48.296;8.874;2022-11-10T11:14:18;11.40;99.90
13686;DHT22;6915;48.296;8.874;2022-11-10T11:16:47;11.70;99.90
13686;DHT22;6915;48.296;8.874;2022-11-10T11:19:14;11.90;99.90
13686;DHT22;6915;48.296;8.874;2022-11-10T11:21:49;12.30;99.90
13686;DHT22;6915;48.296;8.874;2022-11-10T11:24:24;12.50;99.90
13686;DHT22;6915;48.296;8.874;2022-11-10T11:27:00;12.50;99.90
13686;DHT22;6915;48.296;8.874;2022-11-10T11:29:49;12.70;99.90
13686;DHT22;6915;48.296;8.874;2022-11-10T11:32:29;12.70;99.90
13686;DHT22;6915;48.296;8.874;2022-11-10T11:35:05;12.90;99.90
13686;DHT22;6915;48.296;8.874;2022-11-10T11:37:38;13.00;99.90
13686;DHT22;6915;48.296;8.874;2022-11-10T11:40:18;13.10;99.90
13686;DHT22;6915;48.296;8.874;2022-11-10T11:42:55;13.10;99.90
13686;DHT22;6915;48.296;8.874;2022-11-10T11:45:34;13.20;99.90
13686;DHT22;6915;48.296;8.874;2022-11-10T11:48:14;13.30;99.90
13686;DHT22;6915;48.296;8.874;2022-11-10T11:50:51;13.30;99.90
13686;DHT22;6915;48.296;8.874;2022-11-10T11:53:30;13.30;99.90
13686;DHT22;6915;48.296;8.874;2022-11-10T11:56:11;13.30;99.90
13686;DHT22;6915;48.296;8.874;2022-11-10T11:58:44;13.50;99.90
13686;DHT22;6915;48.296;8.874;2022-11-10T12:01:27;13.60;99.90
13686;DHT22;6915;48.296;8.874;2022-11-10T12:04:22;13.60;99.90
13686;DHT22;6915;48.296;8.874;2022-11-10T12:07:06;13.70;99.90
13686;DHT22;6915;48.296;8.874;2022-11-10T12:09:42;13.70;99.90
13686;DHT22;6915;48.296;8.874;2022-11-10T12:12:37;13.90;99.90
13686;DHT22;6915;48.296;8.874;2022-11-10T12:15:22;13.90;99.90
13686;DHT22;6915;48.296;8.874;2022-11-10T12:17:56;13.90;99.90
13686;DHT22;6915;48.296;8.874;2022-11-10T12:20:32;13.80;99.90
13686;DHT22;6915;48.296;8.874;2022-11-10T12:23:07;13.80;99.90
13686;DHT22;6915;48.296;8.874;2022-11-10T12:25:41;13.70;99.90
13686;DHT22;6915;48.296;8.874;2022-11-10T12:28:15;13.80;99.90
13686;DHT22;6915;48.296;8.874;2022-11-10T12:30:43;13.90;99.90
13686;DHT22;6915;48.296;8.874;2022-11-10T12:33:22;13.80;99.90
13686;DHT22;6915;48.296;8.874;2022-11-10T12:35:53;13.90;99.90
13686;DHT22;6915;48.296;8.874;2022-11-10T12:38:25;13.90;99.90
13686;DHT22;6915;48.296;8.874;2022-11-10T12:41:00;14.00;99.90
13686;DHT22;6915;48.296;8.874;2022-11-10T12:43:39;14.00;99.90
13686;DHT22;6915;48.296;8.874;2022-11-10T12:46:09;14.00;99.90
13686;DHT22;6915;48.296;8.874;2022-11-10T12:48:45;14.10;99.90
13686;DHT22;6915;48.296;8.874;2022-11-10T12:51:22;14.20;99.90
13686;DHT22;6915;48.296;8.874;2022-11-10T12:53:50;14.20;99.90
13686;DHT22;6915;48.296;8.874;2022-11-10T12:56:22;14.30;99.90
13686;DHT22;6915;48.296;8.874;2022-11-10T12:59:13;14.40;99.90
13686;DHT22;6915;48.296;8.874;2022-11-10T13:01:43;14.30;99.90
13686;DHT22;6915;48.296;8.874;2022-11-10T13:04:15;14.30;99.90
13686;DHT22;6915;48.296;8.874;2022-11-10T13:06:46;14.40;99.90
13686;DHT22;6915;48.296;8.874;2022-11-10T13:09:22;14.40;99.90
13686;DHT22;6915;48.296;8.874;2022-11-10T13:12:17;14.40;99.90
13686;DHT22;6915;48.296;8.874;2022-11-10T13:14:46;14.50;99.90
13686;DHT22;6915;48.296;8.874;2022-11-10T13:17:52;14.50;99.90
13686;DHT22;6915;48.296;8.874;2022-11-10T13:20:48;14.40;99.90
13686;DHT22;6915;48.296;8.874;2022-11-10T13:23:21;14.40;99.90
13686;DHT22;6915;48.296;8.874;2022-11-10T13:25:58;14.40;99.90
13686;DHT22;6915;48.296;8.874;2022-11-10T13:31:54;14.30;99.90
13686;DHT22;6915;48.296;8.874;2022-11-10T13:34:29;14.40;99.90
13686;DHT22;6915;48.296;8.874;2022-11-10T13:36:59;14.40;99.90
13686;DHT22;6915;48.296;8.874;2022-11-10T13:39:29;14.40;99.90
13686;DHT22;6915;48.296;8.874;2022-11-10T13:42:11;14.40;99.90
13686;DHT22;6915;48.296;8.874;2022-11-10T13:44:43;14.40;99.90
13686;DHT22;6915;48.296;8.874;2022-11-10T13:50:24;14.30;99.90
13686;DHT22;6915;48.296;8.874;2022-11-10T13:53:05;14.30;99.90
13686;DHT22;6915;48.296;8.874;2022-11-10T13:55:47;14.30;99.90
13686;DHT22;6915;48.296;8.874;2022-11-10T13:58:23;14.30;99.90
13686;DHT22;6915;48.296;8.874;2022-11-10T14:01:24;14.30;99.90
13686;DHT22;6915;48.296;8.874;2022-11-10T14:03:56;14.40;99.90
13686;DHT22;6915;48.296;8.874;2022-11-10T14:06:29;14.40;99.90
13686;DHT22;6915;48.296;8.874;2022-11-10T14:09:04;14.40;99.90
13686;DHT22;6915;48.296;8.874;2022-11-10T14:11:39;14.20;99.90
13686;DHT22;6915;48.296;8.874;2022-11-10T14:14:12;14.20;99.90
13686;DHT22;6915;48.296;8.874;2022-11-10T14:16:43;14.20;99.90
13686;DHT22;6915;48.296;8.874;2022-11-10T14:19:26;14.20;99.90
13686;DHT22;6915;48.296;8.874;2022-11-10T14:21:59;14.20;99.90
13686;DHT22;6915;48.296;8.874;2022-11-10T14:24:34;14.10;99.90
13686;DHT22;6915;48.296;8.874;2022-11-10T14:27:06;14.10;99.90
13686;DHT22;6915;48.296;8.874;2022-11-10T14:29:35;14.00;99.90
13686;DHT22;6915;48.296;8.874;2022-11-10T14:32:12;14.10;99.90
13686;DHT22;6915;48.296;8.874;2022-11-10T14:34:46;14.10;99.90
13686;DHT22;6915;48.296;8.874;2022-11-10T14:37:19;14.10;99.90
13686;DHT22;6915;48.296;8.874;2022-11-10T14:39:51;14.00;99.90
13686;DHT22;6915;48.296;8.874;2022-11-10T14:42:22;13.90;99.90
13686;DHT22;6915;48.296;8.874;2022-11-10T14:45:05;13.80;99.90
13686;DHT22;6915;48.296;8.874;2022-11-10T14:47:32;13.80;99.90
13686;DHT22;6915;48.296;8.874;2022-11-10T14:50:22;13.80;99.90
13686;DHT22;6915;48.296;8.874;2022-11-10T14:52:52;13.60;99.90
13686;DHT22;6915;48.296;8.874;2022-11-10T14:55:24;13.60;99.90
13686;DHT22;6915;48.296;8.874;2022-11-10T14:57:57;13.50;99.90
13686;DHT22;6915;48.296;8.874;2022-11-10T15:00:26;13.50;99.90
13686;DHT22;6915;48.296;8.874;2022-11-10T15:02:55;13.40;99.90
13686;DHT22;6915;48.296;8.874;2022-11-10T15:05:23;13.20;99.90
13686;DHT22;6915;48.296;8.874;2022-11-10T15:07:53;13.10;99.90
13686;DHT22;6915;48.296;8.874;2022-11-10T15:10:25;12.90;99.90
13686;DHT22;6915;48.296;8.874;2022-11-10T15:13:00;12.80;99.90
13686;DHT22;6915;48.296;8.874;2022-11-10T15:15:27;12.70;99.90
13686;DHT22;6915;48.296;8.874;2022-11-10T15:17:54;12.50;99.90
13686;DHT22;6915;48.296;8.874;2022-11-10T15:20:36;12.40;99.90
13686;DHT22;6915;48.296;8.874;2022-11-10T15:23:11;12.20;99.90
13686;DHT22;6915;48.296;8.874;2022-11-10T15:25:42;12.10;99.90
13686;DHT22;6915;48.296;8.874;2022-11-10T15:28:21;11.90;99.90
13686;DHT22;6915;48.296;8.874;2022-11-10T15:30:53;11.80;99.90
13686;DHT22;6915;48.296;8.874;2022-11-10T15:33:24;11.50;99.90
13686;DHT22;6915;48.296;8.874;2022-11-10T15:35:53;11.30;99.90
13686;DHT22;6915;48.296;8.874;2022-11-10T15:38:29;11.10;99.90
13686;DHT22;6915;48.296;8.874;2022-11-10T15:41:13;10.90;99.90
13686;DHT22;6915;48.296;8.874;2022-11-10T15:43:41;10.80;99.90
13686;DHT22;6915;48.296;8.874;2022-11-10T15:46:13;10.60;99.90
13686;DHT22;6915;48.296;8.874;2022-11-10T15:48:42;10.40;99.90
13686;DHT22;6915;48.296;8.874;2022-11-10T15:51:11;10.30;99.90
13686;DHT22;6915;48.296;8.874;2022-11-10T15:53:40;10.10;99.90
13686;DHT22;6915;48.296;8.874;2022-11-10T15:56:11;9.90;99.90
13686;DHT22;6915;48.296;8.874;2022-11-10T15:58:39;9.70;99.90
13686;DHT22;6915;48.296;8.874;2022-11-10T16:01:09;9.60;99.90
13686;DHT22;6915;48.296;8.874;2022-11-10T16:03:36;9.40;99.90
13686;DHT22;6915;48.296;8.874;2022-11-10T16:06:04;9.40;99.90
13686;DHT22;6915;48.296;8.874;2022-11-10T16:08:31;9.20;99.90
13686;DHT22;6915;48.296;8.874;2022-11-10T16:10:59;9.10;99.90
13686;DHT22;6915;48.296;8.874;2022-11-10T16:13:30;8.90;99.90
13686;DHT22;6915;48.296;8.874;2022-11-10T16:15:58;8.80;99.90
13686;DHT22;6915;48.296;8.874;2022-11-10T16:18:27;8.70;99.90
13686;DHT22;6915;48.296;8.874;2022-11-10T16:20:55;8.60;99.90
13686;DHT22;6915;48.296;8.874;2022-11-10T16:23:23;8.50;99.90
13686;DHT22;6915;48.296;8.874;2022-11-10T16:25:52;8.50;99.90
13686;DHT22;6915;48.296;8.874;2022-11-10T16:28:23;8.30;99.90
13686;DHT22;6915;48.296;8.874;2022-11-10T16:30:52;8.20;99.90
13686;DHT22;6915;48.296;8.874;2022-11-10T16:33:21;8.20;99.90
13686;DHT22;6915;48.296;8.874;2022-11-10T16:35:50;8.10;99.90
13686;DHT22;6915;48.296;8.874;2022-11-10T16:38:20;8.10;99.90
13686;DHT22;6915;48.296;8.874;2022-11-10T16:40:51;8.00;99.90
13686;DHT22;6915;48.296;8.874;2022-11-10T16:43:19;8.00;99.90